createdAt,value
2022-09-27T00:01:29.469Z,15.14
2022-09-27T00:04:02.814Z,15.17
2022-09-27T00:06:40.614Z,15.21
2022-09-27T00:09:15.106Z,15.15
2022-09-27T00:11:49.198Z,15.13
2022-09-27T00:14:22.648Z,15.14
2022-09-27T00:16:55.936Z,15.14
2022-09-27T00:19:29.826Z,15.14
2022-09-27T00:22:04.012Z,15.15
2022-09-27T00:24:37.727Z,15.13
2022-09-27T00:27:11.103Z,15.12
2022-09-27T00:29:44.261Z,15.05
2022-09-27T00:32:18.245Z,15.05
2022-09-27T00:34:51.685Z,15.07
2022-09-27T00:37:26.377Z,15.10
2022-09-27T00:40:00.252Z,15.11
2022-09-27T00:42:34.020Z,15.11
2022-09-27T00:45:18.250Z,15.11
2022-09-27T00:47:56.258Z,15.15
2022-09-27T00:50:34.646Z,15.18
2022-09-27T00:53:14.570Z,15.16
2022-09-27T00:55:52.364Z,15.16
2022-09-27T00:58:30.813Z,15.15
2022-09-27T01:01:07.724Z,15.16
2022-09-27T01:03:47.538Z,15.17
2022-09-27T01:06:23.011Z,15.18
2022-09-27T01:08:56.375Z,15.19
2022-09-27T01:11:43.426Z,15.20
2022-09-27T01:14:39.071Z,15.21
2022-09-27T01:17:23.317Z,15.23
2022-09-27T01:20:42.362Z,15.25
2022-09-27T01:23:44.356Z,15.28
2022-09-27T01:26:37.037Z,15.27
2022-09-27T01:29:16.303Z,15.26
2022-09-27T01:31:57.046Z,15.24
2022-09-27T01:34:37.219Z,15.21
2022-09-27T01:37:18.025Z,15.19
2022-09-27T01:40:01.189Z,15.13
2022-09-27T01:42:43.253Z,15.05
2022-09-27T01:45:24.659Z,15.04
2022-09-27T01:48:11.951Z,15.03
2022-09-27T01:51:05.921Z,15.03
2022-09-27T01:53:42.825Z,15.08
2022-09-27T01:56:37.466Z,15.08
2022-09-27T01:59:25.938Z,15.07
2022-09-27T02:02:10.232Z,15.07
2022-09-27T02:05:07.213Z,15.07
2022-09-27T02:07:46.620Z,15.08
2022-09-27T02:10:24.584Z,15.06
2022-09-27T02:13:07.925Z,15.05
2022-09-27T02:15:47.890Z,15.02
2022-09-27T02:18:38.852Z,15.00
2022-09-27T02:21:16.647Z,14.97
2022-09-27T02:23:57.113Z,14.97
2022-09-27T02:26:35.095Z,14.96
2022-09-27T02:29:12.577Z,14.97
2022-09-27T02:31:54.265Z,14.96
2022-09-27T02:34:30.975Z,14.93
2022-09-27T02:37:04.454Z,14.90
2022-09-27T02:39:38.365Z,14.87
2022-09-27T02:42:14.239Z,14.85
2022-09-27T02:44:49.191Z,14.82
2022-09-27T02:47:41.194Z,14.80
2022-09-27T02:50:33.762Z,14.79
2022-09-27T02:53:46.070Z,14.74
2022-09-27T02:56:45.252Z,14.65
2022-09-27T02:59:51.685Z,14.65
2022-09-27T03:02:39.267Z,14.67
2022-09-27T03:05:40.410Z,14.69
2022-09-27T03:08:15.404Z,14.69
2022-09-27T03:10:49.927Z,14.69
2022-09-27T03:13:23.712Z,14.71
2022-09-27T03:16:01.362Z,14.73
2022-09-27T03:18:55.617Z,14.70
2022-09-27T03:21:48.208Z,14.68
2022-09-27T03:24:31.945Z,14.66
2022-09-27T03:27:05.925Z,14.64
2022-09-27T03:29:39.590Z,14.63
2022-09-27T03:32:14.175Z,14.62
2022-09-27T03:35:08.650Z,14.63
2022-09-27T03:37:42.926Z,14.63
2022-09-27T03:40:17.749Z,14.55
2022-09-27T03:42:51.732Z,14.47
2022-09-27T03:45:25.832Z,14.50
2022-09-27T03:47:59.275Z,14.53
2022-09-27T03:50:32.897Z,14.54
2022-09-27T03:53:06.412Z,14.54
2022-09-27T03:55:40.208Z,14.49
2022-09-27T03:58:13.674Z,14.44
2022-09-27T04:00:49.403Z,14.44
2022-09-27T04:03:23.156Z,14.46
2022-09-27T04:06:18.337Z,14.51
2022-09-27T04:08:51.758Z,14.55
2022-09-27T04:11:29.654Z,14.58
2022-09-27T04:14:05.571Z,14.61
2022-09-27T04:16:42.107Z,14.62
2022-09-27T04:19:33.043Z,14.63
2022-09-27T04:22:15.863Z,14.65
2022-09-27T04:24:52.661Z,14.69
2022-09-27T04:27:32.386Z,14.73
2022-09-27T04:30:06.714Z,14.75
2022-09-27T04:33:12.751Z,14.74
2022-09-27T04:36:03.966Z,14.72
2022-09-27T04:38:37.819Z,14.69
2022-09-27T04:41:13.036Z,14.68
2022-09-27T04:43:46.693Z,14.68
2022-09-27T04:46:20.010Z,14.67
2022-09-27T04:48:53.470Z,14.64
2022-09-27T04:51:27.378Z,14.61
2022-09-27T04:54:00.978Z,14.58
2022-09-27T04:56:38.815Z,14.53
2022-09-27T04:59:12.417Z,14.47
2022-09-27T05:01:47.384Z,14.41
2022-09-27T05:04:40.865Z,14.36
2022-09-27T05:07:14.591Z,14.32
2022-09-27T05:09:50.933Z,14.36
2022-09-27T05:12:32.700Z,14.40
2022-09-27T05:15:10.700Z,14.39
2022-09-27T05:17:44.358Z,14.42
2022-09-27T05:20:47.098Z,14.41
2022-09-27T05:23:29.433Z,14.33
2022-09-27T05:26:07.274Z,14.31
2022-09-27T05:28:43.447Z,14.34
2022-09-27T05:31:17.288Z,14.30
2022-09-27T05:33:51.578Z,14.22
2022-09-27T05:36:39.099Z,14.19
2022-09-27T05:39:12.648Z,14.22
2022-09-27T05:41:47.051Z,14.14
2022-09-27T05:44:20.673Z,14.13
2022-09-27T05:47:05.239Z,14.20
2022-09-27T05:49:41.926Z,14.24
2022-09-27T05:52:16.829Z,14.26
2022-09-27T05:54:52.829Z,14.26
2022-09-27T05:57:26.454Z,14.26
2022-09-27T06:00:06.026Z,14.29
2022-09-27T06:02:45.256Z,14.33
2022-09-27T06:05:41.984Z,14.29
2022-09-27T06:08:45.757Z,14.26
2022-09-27T06:11:22.675Z,14.26
2022-09-27T06:13:56.985Z,14.28
2022-09-27T06:16:31.271Z,14.25
2022-09-27T06:19:07.055Z,14.29
2022-09-27T06:21:40.534Z,14.30
2022-09-27T06:24:14.098Z,14.31
2022-09-27T06:26:47.843Z,14.25
2022-09-27T06:29:36.131Z,14.20
2022-09-27T06:32:11.932Z,14.19
2022-09-27T06:34:55.488Z,14.21
2022-09-27T06:37:30.451Z,14.26
2022-09-27T06:40:04.449Z,14.31
2022-09-27T06:42:58.885Z,14.37
2022-09-27T06:45:52.754Z,14.37
2022-09-27T06:48:40.178Z,14.30
2022-09-27T06:51:23.240Z,14.27
2022-09-27T06:53:57.040Z,14.27
2022-09-27T06:56:32.732Z,14.20
2022-09-27T06:59:24.767Z,14.10
2022-09-27T07:02:21.669Z,14.03
2022-09-27T07:05:24.505Z,14.04
2022-09-27T07:08:27.599Z,14.04
2022-09-27T07:11:06.764Z,14.00
2022-09-27T07:13:43.259Z,13.97
2022-09-27T07:16:19.972Z,14.00
2022-09-27T07:18:53.952Z,13.98
2022-09-27T07:21:27.776Z,13.97
2022-09-27T07:24:01.723Z,13.91
2022-09-27T07:26:35.636Z,13.95
2022-09-27T07:29:11.419Z,13.97
2022-09-27T07:31:45.521Z,13.97
2022-09-27T07:34:19.801Z,13.95
2022-09-27T07:36:55.324Z,13.97
2022-09-27T07:39:29.134Z,14.02
2022-09-27T07:42:02.627Z,14.07
2022-09-27T07:44:36.076Z,14.13
2022-09-27T07:47:29.138Z,14.23
2022-09-27T07:50:14.941Z,14.19
2022-09-27T07:53:13.194Z,14.18
2022-09-27T07:55:58.737Z,14.13
2022-09-27T07:58:34.494Z,14.01
2022-09-27T08:01:11.784Z,14.02
2022-09-27T08:03:48.355Z,13.95
2022-09-27T08:06:25.493Z,13.95
2022-09-27T08:08:59.968Z,13.95
2022-09-27T08:11:35.858Z,13.95
2022-09-27T08:14:11.037Z,13.99
2022-09-27T08:16:46.465Z,14.04
2022-09-27T08:19:45.461Z,14.10
2022-09-27T08:22:43.974Z,14.14
2022-09-27T08:25:34.059Z,14.21
2022-09-27T08:28:15.300Z,14.23
2022-09-27T08:31:02.981Z,14.23
2022-09-27T08:33:41.241Z,14.24
2022-09-27T08:36:18.283Z,14.29
2022-09-27T08:39:00.845Z,14.34
2022-09-27T08:41:52.447Z,14.40
2022-09-27T08:44:36.767Z,14.46
2022-09-27T08:47:20.398Z,14.53
2022-09-27T08:49:58.974Z,14.57
2022-09-27T08:52:38.874Z,14.60
2022-09-27T08:55:27.382Z,14.66
2022-09-27T08:58:03.033Z,14.74
2022-09-27T09:00:36.795Z,14.77
2022-09-27T09:03:21.206Z,14.83
2022-09-27T09:06:09.383Z,14.86
2022-09-27T09:08:53.535Z,14.86
2022-09-27T09:11:53.846Z,14.89
2022-09-27T09:14:48.730Z,14.89
2022-09-27T09:17:38.208Z,14.93
2022-09-27T09:20:37.002Z,14.96
2022-09-27T09:23:36.313Z,15.04
2022-09-27T09:26:17.731Z,15.12
2022-09-27T09:29:03.354Z,15.22
2022-09-27T09:31:42.806Z,15.22
2022-09-27T09:34:24.113Z,15.12
2022-09-27T09:37:04.437Z,15.15
2022-09-27T09:39:42.465Z,15.21
2022-09-27T09:42:31.733Z,15.24
2022-09-27T09:45:08.581Z,15.20
2022-09-27T09:47:47.339Z,15.18
2022-09-27T09:50:21.015Z,15.20
2022-09-27T09:53:00.708Z,15.17
2022-09-27T09:55:38.509Z,15.22
2022-09-27T09:58:22.471Z,15.25
2022-09-27T10:01:18.714Z,15.27
2022-09-27T10:03:53.072Z,15.26
2022-09-27T10:06:28.406Z,15.25
2022-09-27T10:09:03.169Z,15.29
2022-09-27T10:11:48.485Z,15.33
2022-09-27T10:14:35.039Z,15.40
2022-09-27T10:17:20.975Z,15.40
2022-09-27T10:19:55.130Z,15.41
2022-09-27T10:22:34.489Z,15.46
2022-09-27T10:25:14.563Z,15.38
2022-09-27T10:27:54.668Z,15.30
2022-09-27T10:30:33.353Z,15.31
2022-09-27T10:33:20.163Z,15.25
2022-09-27T10:36:01.328Z,15.20
2022-09-27T10:38:38.229Z,15.13
2022-09-27T10:41:29.275Z,15.09
2022-09-27T10:44:26.660Z,15.03
2022-09-27T10:47:26.645Z,15.00
2022-09-27T10:50:38.660Z,15.01
2022-09-27T10:53:25.109Z,15.04
2022-09-27T10:56:05.791Z,15.04
2022-09-27T10:58:40.532Z,15.10
2022-09-27T11:01:18.014Z,15.21
2022-09-27T11:04:25.456Z,15.30
2022-09-27T11:07:14.062Z,15.34
2022-09-27T11:09:55.108Z,15.36
2022-09-27T11:12:30.966Z,15.34
2022-09-27T11:15:07.850Z,15.37
2022-09-27T11:17:55.044Z,15.38
2022-09-27T11:20:38.484Z,15.41
2022-09-27T11:23:43.454Z,15.41
2022-09-27T11:26:35.525Z,15.36
2022-09-27T11:29:24.672Z,15.32
2022-09-27T11:32:48.325Z,15.35
2022-09-27T11:35:42.483Z,15.43
2022-09-27T11:38:51.084Z,15.48
2022-09-27T11:41:33.706Z,15.56
2022-09-27T11:44:29.493Z,15.68
2022-09-27T11:47:16.031Z,15.79
2022-09-27T11:50:18.914Z,15.86
2022-09-27T11:53:09.454Z,15.87
2022-09-27T11:55:54.814Z,15.87
2022-09-27T11:58:37.507Z,15.94
2022-09-27T12:01:28.140Z,15.98
2022-09-27T12:04:32.140Z,15.94
2022-09-27T12:07:13.725Z,15.96
2022-09-27T12:09:54.352Z,16.05
2022-09-27T12:12:31.592Z,16.11
2022-09-27T12:15:08.852Z,16.24
2022-09-27T12:17:44.849Z,16.38
2022-09-27T12:20:24.819Z,16.52
2022-09-27T12:23:03.290Z,16.59
2022-09-27T12:26:00.977Z,16.63
2022-09-27T12:28:43.846Z,16.67
2022-09-27T12:31:30.860Z,16.62
2022-09-27T12:34:19.786Z,16.67
2022-09-27T12:37:00.666Z,16.73
2022-09-27T12:39:46.341Z,16.76
2022-09-27T12:42:34.162Z,16.75
2022-09-27T12:45:16.429Z,16.82
2022-09-27T12:48:03.278Z,16.93
2022-09-27T12:50:44.667Z,17.04
2022-09-27T12:53:25.239Z,17.11
2022-09-27T12:56:21.313Z,17.28
2022-09-27T12:59:22.744Z,17.44
2022-09-27T13:02:31.398Z,17.44
2022-09-27T13:05:28.818Z,17.48
2022-09-27T13:08:18.280Z,17.47
2022-09-27T13:11:07.611Z,17.48
2022-09-27T13:13:43.846Z,17.39
2022-09-27T13:16:17.217Z,17.32
2022-09-27T13:19:02.021Z,17.25
2022-09-27T13:22:05.339Z,17.28
2022-09-27T13:25:02.089Z,17.33
2022-09-27T13:27:56.032Z,17.32
2022-09-27T13:30:51.574Z,17.42
2022-09-27T13:33:49.692Z,17.61
2022-09-27T13:36:39.776Z,17.60
2022-09-27T13:39:23.850Z,17.50
2022-09-27T13:42:32.714Z,17.54
2022-09-27T13:45:29.833Z,17.61
2022-09-27T13:48:16.727Z,17.58
2022-09-27T13:50:57.138Z,17.59
2022-09-27T13:53:33.569Z,17.57
2022-09-27T13:56:07.705Z,17.48
2022-09-27T13:58:56.411Z,17.48
2022-09-27T14:01:58.534Z,17.50
2022-09-27T14:04:42.868Z,17.49
2022-09-27T14:07:20.200Z,17.35
2022-09-27T14:09:57.245Z,17.27
2022-09-27T14:12:36.878Z,17.27
2022-09-27T14:15:23.115Z,17.28
2022-09-27T14:17:59.263Z,17.31
2022-09-27T14:20:39.098Z,17.30
2022-09-27T14:23:22.097Z,17.32
2022-09-27T14:25:59.082Z,17.27
2022-09-27T14:28:42.812Z,17.28
2022-09-27T14:31:26.736Z,17.29
2022-09-27T14:34:15.315Z,17.27
2022-09-27T14:37:11.085Z,17.26
2022-09-27T14:40:00.391Z,17.15
2022-09-27T14:42:39.707Z,17.10
2022-09-27T14:45:23.139Z,17.06
2022-09-27T14:47:57.167Z,16.97
2022-09-27T14:50:33.285Z,16.91
2022-09-27T14:53:24.934Z,16.88
2022-09-27T14:55:59.129Z,16.85
2022-09-27T14:58:46.585Z,16.84
2022-09-27T15:01:23.371Z,16.82
2022-09-27T15:03:57.632Z,16.78
2022-09-27T15:06:31.353Z,16.76
2022-09-27T15:09:30.987Z,16.77
2022-09-27T15:12:08.989Z,16.80
2022-09-27T15:14:49.435Z,16.78
2022-09-27T15:17:25.615Z,16.75
2022-09-27T15:20:05.800Z,16.73
2022-09-27T15:22:45.514Z,16.71
2022-09-27T15:25:34.778Z,16.70
2022-09-27T15:28:20.668Z,16.64
2022-09-27T15:30:57.539Z,16.59
2022-09-27T15:33:34.559Z,16.57
2022-09-27T15:36:11.084Z,16.57
2022-09-27T15:38:47.699Z,16.57
2022-09-27T15:41:22.852Z,16.57
2022-09-27T15:43:56.495Z,16.61
2022-09-27T15:46:35.183Z,16.57
2022-09-27T15:49:39.298Z,16.53
2022-09-27T15:52:43.584Z,16.53
2022-09-27T15:55:18.182Z,16.54
2022-09-27T15:57:55.164Z,16.54
2022-09-27T16:00:29.887Z,16.56
2022-09-27T16:03:03.376Z,16.57
2022-09-27T16:05:37.718Z,16.56
2022-09-27T16:08:13.609Z,16.54
2022-09-27T16:10:50.299Z,16.49
2022-09-27T16:13:27.775Z,16.47
2022-09-27T16:16:05.268Z,16.44
2022-09-27T16:18:38.513Z,16.41
2022-09-27T16:21:12.101Z,16.34
2022-09-27T16:23:45.946Z,16.32
2022-09-27T16:26:19.976Z,16.29
2022-09-27T16:28:53.428Z,16.29
2022-09-27T16:31:29.578Z,16.23
2022-09-27T16:34:02.483Z,16.11
2022-09-27T16:36:36.817Z,16.05
2022-09-27T16:39:14.223Z,16.02
2022-09-27T16:41:48.518Z,16.00
2022-09-27T16:44:21.792Z,15.96
2022-09-27T16:46:55.438Z,15.92
2022-09-27T16:49:48.049Z,15.86
2022-09-27T16:52:21.772Z,15.85
2022-09-27T16:54:54.911Z,15.83
2022-09-27T16:57:28.876Z,15.79
2022-09-27T17:00:02.426Z,15.82
2022-09-27T17:02:36.437Z,15.82
2022-09-27T17:05:11.198Z,15.84
2022-09-27T17:07:44.256Z,15.88
2022-09-27T17:10:20.293Z,15.86
2022-09-27T17:12:54.145Z,15.83
2022-09-27T17:15:27.352Z,15.80
2022-09-27T17:18:00.762Z,15.79
2022-09-27T17:20:34.057Z,15.74
2022-09-27T17:23:08.186Z,15.69
2022-09-27T17:25:42.069Z,15.63
2022-09-27T17:28:17.819Z,15.61
2022-09-27T17:30:53.477Z,15.54
2022-09-27T17:33:28.478Z,15.51
2022-09-27T17:36:06.513Z,15.51
2022-09-27T17:38:41.077Z,15.50
2022-09-27T17:41:16.363Z,15.47
2022-09-27T17:43:53.794Z,15.46
2022-09-27T17:46:29.755Z,15.43
2022-09-27T17:49:22.235Z,15.41
2022-09-27T17:51:57.345Z,15.33
2022-09-27T17:54:31.116Z,15.32
2022-09-27T17:57:05.318Z,15.31
2022-09-27T17:59:39.811Z,15.29
2022-09-27T18:02:16.100Z,15.30
2022-09-27T18:04:52.057Z,15.29
2022-09-27T18:07:26.503Z,15.27
2022-09-27T18:10:00.705Z,15.29
2022-09-27T18:12:35.535Z,15.35
2022-09-27T18:15:11.618Z,15.40
2022-09-27T18:17:46.370Z,15.42
2022-09-27T18:20:21.155Z,15.45
2022-09-27T18:22:58.015Z,15.47
2022-09-27T18:25:31.724Z,15.49
2022-09-27T18:28:05.654Z,15.47
2022-09-27T18:30:38.785Z,15.46
2022-09-27T18:33:15.456Z,15.46
2022-09-27T18:35:48.971Z,15.49
2022-09-27T18:38:22.193Z,15.48
2022-09-27T18:40:57.943Z,15.46
2022-09-27T18:43:35.349Z,15.48
2022-09-27T18:46:34.443Z,15.52
2022-09-27T18:49:11.033Z,15.56
2022-09-27T18:51:47.536Z,15.57
2022-09-27T18:54:24.091Z,15.52
2022-09-27T18:56:58.045Z,15.55
2022-09-27T18:59:31.759Z,15.56
2022-09-27T19:02:05.278Z,15.55
2022-09-27T19:04:38.947Z,15.56
2022-09-27T19:07:12.774Z,15.57
2022-09-27T19:09:46.097Z,15.60
2022-09-27T19:12:19.468Z,15.62
2022-09-27T19:14:53.501Z,15.58
2022-09-27T19:17:27.077Z,15.59
2022-09-27T19:20:00.749Z,15.59
2022-09-27T19:22:34.169Z,15.61
2022-09-27T19:25:08.895Z,15.60
2022-09-27T19:27:43.369Z,15.62
2022-09-27T19:30:18.100Z,15.60
2022-09-27T19:32:53.081Z,15.63
2022-09-27T19:35:26.443Z,15.64
2022-09-27T19:38:00.190Z,15.59
2022-09-27T19:40:34.646Z,15.59
2022-09-27T19:43:08.354Z,15.60
2022-09-27T19:45:42.399Z,15.55
2022-09-27T19:48:15.548Z,15.54
2022-09-27T19:51:00.090Z,15.54
2022-09-27T19:53:35.918Z,15.53
2022-09-27T19:56:11.561Z,15.46
2022-09-27T19:58:46.258Z,15.44
2022-09-27T20:01:21.596Z,15.47
2022-09-27T20:03:57.089Z,15.47
2022-09-27T20:06:32.026Z,15.43
2022-09-27T20:09:05.639Z,15.38
2022-09-27T20:11:39.859Z,15.35
2022-09-27T20:14:13.731Z,15.36
2022-09-27T20:16:47.164Z,15.32
2022-09-27T20:19:20.325Z,15.31
2022-09-27T20:21:54.619Z,15.31
2022-09-27T20:24:27.917Z,15.32
2022-09-27T20:27:01.057Z,15.36
2022-09-27T20:29:34.862Z,15.42
2022-09-27T20:32:26.630Z,15.43
2022-09-27T20:35:01.797Z,15.45
2022-09-27T20:37:35.608Z,15.42
2022-09-27T20:40:10.542Z,15.36
2022-09-27T20:42:43.617Z,15.31
2022-09-27T20:45:17.942Z,15.28
2022-09-27T20:47:51.402Z,15.21
2022-09-27T20:50:24.749Z,15.16
2022-09-27T20:52:58.073Z,15.02
2022-09-27T20:55:31.702Z,14.90
2022-09-27T20:58:05.240Z,14.70
2022-09-27T21:00:40.473Z,14.65
2022-09-27T21:03:14.841Z,14.62
2022-09-27T21:05:56.537Z,14.57
2022-09-27T21:08:33.433Z,14.53
2022-09-27T21:11:12.654Z,14.56
2022-09-27T21:13:47.433Z,14.60
2022-09-27T21:16:22.063Z,14.60
2022-09-27T21:18:56.707Z,14.55
2022-09-27T21:21:30.365Z,14.52
2022-09-27T21:24:05.196Z,14.48
2022-09-27T21:26:38.764Z,14.52
2022-09-27T21:29:13.885Z,14.54
2022-09-27T21:31:47.627Z,14.56
2022-09-27T21:34:21.111Z,14.61
2022-09-27T21:36:59.907Z,14.68
2022-09-27T21:39:33.512Z,14.72
2022-09-27T21:42:07.425Z,14.74
2022-09-27T21:44:41.166Z,14.78
2022-09-27T21:47:17.972Z,14.82
2022-09-27T21:49:51.693Z,14.84
2022-09-27T21:52:26.122Z,14.89
2022-09-27T21:54:59.465Z,14.95
2022-09-27T21:57:35.529Z,14.99
2022-09-27T22:00:11.672Z,15.02
2022-09-27T22:02:45.484Z,15.04
2022-09-27T22:05:18.942Z,15.07
2022-09-27T22:07:52.628Z,15.12
2022-09-27T22:10:26.533Z,15.15
2022-09-27T22:13:00.375Z,15.17
2022-09-27T22:15:35.818Z,15.18
2022-09-27T22:18:09.420Z,15.18
2022-09-27T22:20:42.615Z,15.20
2022-09-27T22:23:16.237Z,15.20
2022-09-27T22:25:49.881Z,15.19
2022-09-27T22:28:23.352Z,15.22
2022-09-27T22:30:57.074Z,15.25
2022-09-27T22:33:31.200Z,15.28
2022-09-27T22:36:08.853Z,15.31
2022-09-27T22:38:42.381Z,15.32
2022-09-27T22:41:18.940Z,15.33
2022-09-27T22:43:53.750Z,15.35
2022-09-27T22:46:30.051Z,15.37
2022-09-27T22:49:03.324Z,15.38
2022-09-27T22:51:36.949Z,15.40
2022-09-27T22:54:11.246Z,15.38
2022-09-27T22:56:44.436Z,15.35
2022-09-27T22:59:18.245Z,15.34
2022-09-27T23:01:52.095Z,15.35
2022-09-27T23:04:25.710Z,15.36
2022-09-27T23:06:59.591Z,15.37
2022-09-27T23:09:32.962Z,15.38
2022-09-27T23:12:07.657Z,15.37
2022-09-27T23:14:42.698Z,15.36
2022-09-27T23:17:20.639Z,15.31
2022-09-27T23:19:54.429Z,15.29
2022-09-27T23:22:33.487Z,15.29
2022-09-27T23:25:07.241Z,15.30
2022-09-27T23:27:45.445Z,15.30
2022-09-27T23:30:20.455Z,15.28
2022-09-27T23:32:57.587Z,15.27
2022-09-27T23:35:31.752Z,15.24
2022-09-27T23:38:04.616Z,15.24
2022-09-27T23:40:39.398Z,15.25
2022-09-27T23:43:13.108Z,15.26
2022-09-27T23:45:46.368Z,15.27
2022-09-27T23:48:19.657Z,15.25
2022-09-27T23:50:53.913Z,15.22
2022-09-27T23:53:27.667Z,15.19
2022-09-27T23:56:05.765Z,15.14
2022-09-27T23:58:40.322Z,15.08
